createdAt,value
2023-03-19T00:03:58.240Z,11.73
2023-03-19T00:08:59.901Z,10.90
2023-03-19T00:14:01.698Z,15.35
2023-03-19T00:19:03.931Z,15.32
2023-03-19T00:24:05.930Z,12.70
2023-03-19T00:29:08.392Z,11.73
2023-03-19T00:34:10.447Z,12.85
2023-03-19T00:39:12.520Z,17.48
2023-03-19T00:44:14.152Z,12.88
2023-03-19T00:49:15.817Z,13.82
2023-03-19T00:54:17.917Z,13.48
2023-03-19T00:59:20.304Z,15.00
2023-03-19T01:04:24.005Z,18.52
2023-03-19T01:09:27.434Z,12.23
2023-03-19T01:14:29.071Z,14.43
2023-03-19T01:19:30.769Z,12.35
2023-03-19T01:24:32.646Z,11.43
2023-03-19T01:29:35.410Z,10.68
2023-03-19T01:34:46.672Z,13.50
2023-03-19T01:39:51.208Z,14.55
2023-03-19T01:44:53.027Z,12.25
2023-03-19T01:50:04.466Z,12.15
2023-03-19T01:55:07.406Z,14.13
2023-03-19T02:00:24.101Z,13.18
2023-03-19T02:05:29.181Z,14.65
2023-03-19T02:10:37.205Z,13.35
2023-03-19T02:15:39.210Z,14.25
2023-03-19T02:20:47.166Z,13.10
2023-03-19T02:26:10.220Z,13.73
2023-03-19T02:31:13.376Z,13.68
2023-03-19T02:36:18.263Z,15.60
2023-03-19T02:41:19.983Z,13.55
2023-03-19T02:46:21.749Z,15.32
2023-03-19T02:51:23.476Z,15.15
2023-03-19T02:56:26.214Z,15.98
2023-03-19T03:01:28.427Z,17.52
2023-03-19T03:06:30.523Z,13.88
2023-03-19T03:11:32.193Z,15.45
2023-03-19T03:16:33.856Z,15.68
2023-03-19T03:21:35.939Z,17.42
2023-03-19T03:26:39.007Z,16.35
2023-03-19T03:31:40.763Z,15.63
2023-03-19T03:36:42.423Z,16.98
2023-03-19T03:41:44.209Z,18.65
2023-03-19T03:46:46.616Z,16.42
2023-03-19T03:51:48.993Z,17.67
2023-03-19T03:56:51.246Z,17.08
2023-03-19T04:01:53.049Z,15.63
2023-03-19T04:06:55.443Z,17.55
2023-03-19T04:12:06.615Z,18.85
2023-03-19T04:17:08.254Z,16.88
2023-03-19T04:22:10.272Z,14.10
2023-03-19T04:27:12.452Z,16.40
2023-03-19T04:32:15.375Z,18.63
2023-03-19T04:37:17.520Z,17.67
2023-03-19T04:42:23.656Z,16.15
2023-03-19T04:47:32.817Z,19.38
2023-03-19T04:52:37.427Z,20.33
2023-03-19T04:57:39.661Z,15.23
2023-03-19T05:02:43.072Z,17.75
2023-03-19T05:07:45.316Z,19.92
2023-03-19T05:12:47.279Z,18.50
2023-03-19T05:17:50.054Z,18.20
2023-03-19T05:23:01.297Z,18.75
2023-03-19T05:28:12.585Z,16.77
2023-03-19T05:33:14.636Z,20.13
2023-03-19T05:38:19.615Z,19.35
2023-03-19T05:43:29.403Z,16.98
2023-03-19T05:48:33.608Z,21.58
2023-03-19T05:53:37.508Z,21.13
2023-03-19T05:59:01.000Z,22.63
2023-03-19T06:04:11.567Z,21.98
2023-03-19T06:09:13.529Z,19.60
2023-03-19T06:14:18.092Z,18.90
2023-03-19T06:19:34.029Z,22.33
2023-03-19T06:24:36.989Z,19.08
2023-03-19T06:29:39.007Z,19.30
2023-03-19T06:34:56.606Z,21.05
2023-03-19T06:39:58.694Z,18.00
2023-03-19T06:45:00.373Z,22.05
2023-03-19T06:50:22.029Z,20.65
2023-03-19T06:55:23.623Z,18.90
2023-03-19T07:00:25.348Z,21.08
2023-03-19T07:05:27.039Z,18.30
2023-03-19T07:10:29.120Z,21.40
2023-03-19T07:15:30.984Z,17.42
2023-03-19T07:20:33.336Z,19.23
2023-03-19T07:25:35.500Z,20.05
2023-03-19T07:30:38.503Z,20.33
2023-03-19T07:35:40.176Z,17.98
2023-03-19T07:40:51.362Z,28.88
2023-03-19T07:46:01.515Z,17.73
2023-03-19T07:51:06.541Z,18.95
2023-03-19T07:56:08.132Z,21.25
2023-03-19T08:01:10.194Z,19.80
2023-03-19T08:06:11.811Z,19.80
2023-03-19T08:11:14.716Z,17.77
2023-03-19T08:16:16.337Z,16.70
2023-03-19T08:21:18.239Z,16.38
2023-03-19T08:26:19.843Z,17.73
2023-03-19T08:31:21.531Z,16.65
2023-03-19T08:36:23.201Z,18.80
2023-03-19T08:41:25.362Z,17.17
2023-03-19T08:46:27.789Z,15.50
2023-03-19T08:51:31.501Z,16.25
2023-03-19T08:56:33.406Z,16.23
2023-03-19T09:01:35.569Z,15.60
2023-03-19T09:06:37.210Z,16.27
2023-03-19T09:11:39.075Z,15.07
2023-03-19T09:16:41.054Z,17.85
2023-03-19T09:21:43.076Z,16.48
2023-03-19T09:26:46.361Z,17.13
2023-03-19T09:31:48.101Z,15.25
2023-03-19T09:36:49.823Z,18.40
2023-03-19T09:42:08.837Z,16.65
2023-03-19T09:47:31.445Z,18.30
2023-03-19T09:52:49.605Z,15.20
2023-03-19T09:57:56.439Z,16.42
2023-03-19T10:03:16.712Z,14.88
2023-03-19T10:08:36.248Z,16.48
2023-03-19T10:13:49.757Z,13.60
2023-03-19T10:18:54.292Z,13.77
2023-03-19T10:24:02.491Z,14.45
2023-03-19T10:29:19.676Z,13.10
2023-03-19T10:34:31.810Z,12.02
2023-03-19T10:39:36.768Z,13.18
2023-03-19T10:44:50.942Z,16.27
2023-03-19T10:49:53.914Z,14.30
2023-03-19T10:55:02.222Z,12.45
2023-03-19T11:00:07.172Z,11.60
2023-03-19T11:05:15.602Z,13.35
2023-03-19T11:10:19.979Z,13.90
2023-03-19T11:15:43.419Z,11.23
2023-03-19T11:20:54.258Z,12.60
2023-03-19T11:26:01.719Z,9.80
2023-03-19T11:31:19.999Z,11.90
2023-03-19T11:36:29.549Z,12.43
2023-03-19T11:41:43.089Z,9.65
2023-03-19T11:47:03.857Z,11.43
2023-03-19T11:52:34.112Z,10.02
2023-03-19T11:58:06.838Z,15.52
2023-03-19T12:03:30.003Z,10.15
2023-03-19T12:08:51.234Z,10.63
2023-03-19T12:14:32.960Z,10.70
2023-03-19T12:20:03.157Z,14.02
2023-03-19T12:25:16.927Z,11.63
2023-03-19T12:30:26.538Z,11.85
2023-03-19T12:35:35.852Z,9.98
2023-03-19T12:40:52.673Z,10.90
2023-03-19T12:46:14.970Z,12.38
2023-03-19T12:51:22.791Z,13.52
2023-03-19T12:56:43.888Z,11.20
2023-03-19T13:01:51.099Z,10.52
2023-03-19T13:06:59.269Z,11.68
2023-03-19T13:12:10.707Z,13.02
2023-03-19T13:17:24.240Z,10.00
2023-03-19T13:22:37.418Z,10.93
2023-03-19T13:27:39.148Z,13.25
2023-03-19T13:32:48.041Z,13.93
2023-03-19T13:42:57.289Z,12.27
2023-03-19T13:48:28.650Z,11.98
2023-03-19T13:53:35.255Z,11.27
2023-03-19T13:59:16.998Z,11.55
2023-03-19T14:04:26.149Z,11.57
2023-03-19T14:14:44.450Z,9.50
2023-03-19T14:19:46.333Z,11.98
2023-03-19T14:25:15.150Z,11.63
2023-03-19T14:30:52.513Z,10.10
2023-03-19T14:35:54.312Z,13.15
2023-03-19T14:40:56.254Z,12.60
2023-03-19T14:46:00.941Z,11.98
2023-03-19T14:51:31.994Z,11.00
2023-03-19T14:56:35.848Z,9.30
2023-03-19T15:01:41.550Z,8.43
2023-03-19T15:06:51.789Z,12.10
2023-03-19T15:12:21.295Z,9.70
2023-03-19T15:17:29.801Z,12.15
2023-03-19T15:22:36.935Z,10.45
2023-03-19T15:27:41.182Z,9.75
2023-03-19T15:32:54.423Z,8.65
2023-03-19T15:38:09.728Z,14.57
2023-03-19T15:43:13.070Z,8.48
2023-03-19T15:48:25.569Z,11.25
2023-03-19T15:53:32.339Z,10.23
2023-03-19T15:58:48.565Z,10.13
2023-03-19T16:04:00.061Z,9.90
2023-03-19T16:09:23.890Z,9.13
2023-03-19T16:14:25.772Z,9.20
2023-03-19T16:19:40.093Z,10.95
2023-03-19T16:25:09.040Z,13.23
2023-03-19T16:30:27.672Z,26.60
2023-03-19T16:35:31.724Z,19.57
2023-03-19T16:40:42.830Z,16.15
2023-03-19T16:45:49.328Z,16.77
2023-03-19T16:50:51.642Z,14.82
2023-03-19T16:55:55.273Z,15.43
2023-03-19T17:00:59.365Z,14.55
2023-03-19T17:06:02.706Z,14.15
2023-03-19T17:11:09.371Z,14.85
2023-03-19T17:16:11.894Z,12.38
2023-03-19T17:21:32.569Z,12.30
2023-03-19T17:26:46.142Z,13.35
2023-03-19T17:31:54.290Z,12.32
2023-03-19T17:37:01.751Z,14.60
2023-03-19T17:42:16.528Z,16.05
2023-03-19T17:47:18.967Z,15.57
2023-03-19T17:52:21.302Z,14.00
2023-03-19T17:57:22.952Z,19.33
2023-03-19T18:02:32.027Z,16.23
2023-03-19T18:12:44.612Z,16.80
2023-03-19T18:17:53.000Z,19.35
2023-03-19T18:22:54.726Z,18.55
2023-03-19T18:27:57.100Z,18.48
2023-03-19T18:33:02.901Z,22.02
2023-03-19T18:38:16.151Z,17.13
2023-03-19T18:43:17.931Z,20.50
2023-03-19T18:48:24.610Z,20.20
2023-03-19T18:53:26.602Z,21.55
2023-03-19T18:58:29.174Z,24.30
2023-03-19T19:03:33.489Z,21.80
2023-03-19T19:08:35.440Z,22.98
2023-03-19T19:13:53.322Z,21.60
2023-03-19T19:18:57.674Z,25.23
2023-03-19T19:23:59.361Z,24.20
2023-03-19T19:29:01.473Z,22.35
2023-03-19T19:34:03.169Z,20.27
2023-03-19T19:39:04.925Z,20.13
2023-03-19T19:44:07.060Z,21.88
2023-03-19T19:49:13.435Z,28.38
2023-03-19T19:54:15.689Z,21.13
2023-03-19T19:59:25.586Z,23.92
2023-03-19T20:04:29.973Z,24.05
2023-03-19T20:09:32.342Z,24.38
2023-03-19T20:14:34.137Z,24.63
2023-03-19T20:19:35.910Z,27.42
2023-03-19T20:24:39.641Z,29.17
2023-03-19T20:29:41.512Z,23.45
2023-03-19T20:34:43.485Z,24.98
2023-03-19T20:39:45.374Z,20.63
2023-03-19T20:44:47.688Z,23.27
2023-03-19T20:49:49.539Z,23.42
2023-03-19T20:54:51.441Z,22.15
2023-03-19T20:59:53.200Z,25.20
2023-03-19T21:04:54.899Z,30.75
2023-03-19T21:09:58.083Z,28.00
2023-03-19T21:15:01.242Z,25.27
2023-03-19T21:20:03.224Z,15.57
2023-03-19T21:25:08.111Z,18.45
2023-03-19T21:30:14.736Z,16.33
2023-03-19T21:35:26.467Z,12.52
2023-03-19T21:40:30.794Z,15.20
2023-03-19T21:45:36.515Z,13.82
2023-03-19T21:50:40.103Z,15.13
2023-03-19T21:55:42.347Z,18.10
2023-03-19T22:00:44.990Z,24.33
2023-03-19T22:05:51.258Z,24.90
2023-03-19T22:10:57.131Z,18.00
2023-03-19T22:16:00.412Z,15.77
2023-03-19T22:21:02.396Z,14.85
2023-03-19T22:26:04.121Z,22.90
2023-03-19T22:31:06.323Z,19.00
2023-03-19T22:36:12.684Z,23.27
2023-03-19T22:41:28.779Z,22.10
2023-03-19T22:46:31.208Z,23.00
2023-03-19T22:51:33.163Z,21.00
2023-03-19T22:56:34.841Z,18.30
2023-03-19T23:01:47.213Z,20.15
2023-03-19T23:06:50.108Z,22.77
2023-03-19T23:11:53.616Z,24.98
2023-03-19T23:22:00.129Z,16.65
2023-03-19T23:27:02.978Z,15.77
2023-03-19T23:32:05.006Z,14.50
2023-03-19T23:37:06.976Z,14.55
2023-03-19T23:42:22.393Z,23.85
2023-03-19T23:47:24.249Z,20.75
2023-03-19T23:52:26.223Z,23.63
2023-03-19T23:57:27.908Z,20.50
